createdAt,value
2018-04-12T00:01:38.413Z,7.40
2018-04-12T00:04:06.647Z,7.30
2018-04-12T00:06:34.176Z,7.27
2018-04-12T00:09:01.653Z,7.63
2018-04-12T00:11:29.151Z,7.50
2018-04-12T00:13:57.383Z,8.40
2018-04-12T00:16:24.888Z,8.47
2018-04-12T00:18:53.163Z,8.47
2018-04-12T00:21:21.470Z,8.37
2018-04-12T00:23:49.029Z,8.00
2018-04-12T00:26:16.540Z,8.80
2018-04-12T00:28:44.824Z,8.43
2018-04-12T00:31:12.340Z,9.30
2018-04-12T00:33:39.828Z,8.90
2018-04-12T00:36:07.412Z,10.00
2018-04-12T00:38:35.769Z,9.50
2018-04-12T00:41:03.345Z,9.10
2018-04-12T00:43:31.577Z,9.37
2018-04-12T00:45:59.068Z,9.87
2018-04-12T00:48:26.539Z,9.53
2018-04-12T00:50:54.787Z,9.90
2018-04-12T00:53:34.124Z,8.97
2018-04-12T00:56:01.612Z,9.77
2018-04-12T00:58:29.862Z,9.80
2018-04-12T01:00:58.862Z,9.67
2018-04-12T01:03:27.152Z,10.03
2018-04-12T01:05:55.407Z,10.13
2018-04-12T01:08:22.891Z,10.00
2018-04-12T01:10:51.265Z,9.97
2018-04-12T01:13:19.877Z,10.47
2018-04-12T01:15:47.540Z,9.93
2018-04-12T01:18:15.044Z,10.30
2018-04-12T01:20:42.540Z,9.53
2018-04-12T01:23:10.093Z,10.33
2018-04-12T01:25:38.454Z,9.97
2018-04-12T01:28:05.920Z,9.27
2018-04-12T01:30:34.166Z,9.83
2018-04-12T01:33:13.343Z,9.77
2018-04-12T01:35:40.840Z,10.70
2018-04-12T01:38:08.396Z,10.07
2018-04-12T01:40:35.915Z,10.37
2018-04-12T01:43:03.353Z,10.20
2018-04-12T01:45:31.623Z,11.13
2018-04-12T01:47:59.107Z,10.33
2018-04-12T01:50:26.635Z,10.70
2018-04-12T01:52:54.125Z,12.47
2018-04-12T01:55:21.619Z,11.50
2018-04-12T01:57:49.152Z,11.17
2018-04-12T02:00:16.651Z,10.87
2018-04-12T02:02:44.136Z,10.50
2018-04-12T02:05:12.416Z,10.50
2018-04-12T02:07:40.689Z,10.70
2018-04-12T02:10:08.951Z,10.57
2018-04-12T02:12:36.432Z,10.10
2018-04-12T02:15:04.684Z,9.93
2018-04-12T02:17:32.161Z,10.17
2018-04-12T02:20:00.411Z,9.87
2018-04-12T02:22:27.895Z,10.63
2018-04-12T02:24:56.142Z,11.07
2018-04-12T02:27:24.409Z,10.30
2018-04-12T02:29:51.880Z,9.97
2018-04-12T02:32:20.130Z,10.73
2018-04-12T02:34:47.619Z,10.87
2018-04-12T02:37:15.219Z,12.33
2018-04-12T02:39:42.702Z,11.47
2018-04-12T02:42:10.310Z,11.67
2018-04-12T02:44:38.545Z,13.03
2018-04-12T02:47:06.048Z,13.73
2018-04-12T02:49:34.359Z,14.23
2018-04-12T02:52:01.860Z,13.30
2018-04-12T02:54:29.354Z,13.20
2018-04-12T02:56:56.884Z,12.80
2018-04-12T02:59:24.352Z,13.00
2018-04-12T03:01:52.604Z,12.53
2018-04-12T03:04:20.092Z,12.40
2018-04-12T03:06:48.404Z,12.33
2018-04-12T03:09:15.878Z,12.50
2018-04-12T03:11:43.388Z,12.73
2018-04-12T03:14:11.738Z,13.03
2018-04-12T03:16:40.062Z,12.03
2018-04-12T03:19:07.619Z,13.77
2018-04-12T03:21:35.142Z,12.67
2018-04-12T03:24:02.639Z,13.00
2018-04-12T03:26:30.131Z,14.30
2018-04-12T03:28:57.722Z,14.93
2018-04-12T03:31:26.025Z,15.07
2018-04-12T03:33:53.592Z,14.00
2018-04-12T03:36:21.150Z,14.57
2018-04-12T03:38:48.709Z,15.43
2018-04-12T03:41:16.262Z,14.57
2018-04-12T03:43:43.795Z,14.70
2018-04-12T03:46:12.038Z,14.93
2018-04-12T03:48:39.558Z,15.37
2018-04-12T03:51:07.187Z,15.80
2018-04-12T03:53:34.631Z,15.77
2018-04-12T03:56:02.879Z,16.77
2018-04-12T03:58:30.475Z,16.63
2018-04-12T04:00:58.726Z,16.53
2018-04-12T04:03:26.211Z,16.77
2018-04-12T04:05:54.478Z,16.47
2018-04-12T04:08:22.077Z,17.13
2018-04-12T04:10:49.591Z,17.23
2018-04-12T04:13:17.868Z,16.30
2018-04-12T04:15:57.352Z,18.53
2018-04-12T04:18:36.785Z,17.50
2018-04-12T04:21:09.867Z,17.43
2018-04-12T04:23:37.363Z,18.27
2018-04-12T04:26:04.834Z,16.77
2018-04-12T04:28:32.431Z,18.73
2018-04-12T04:31:00.728Z,18.23
2018-04-12T04:33:28.193Z,19.83
2018-04-12T04:35:55.696Z,17.97
2018-04-12T04:38:23.255Z,17.97
2018-04-12T04:40:50.819Z,18.27
2018-04-12T04:43:18.295Z,17.27
2018-04-12T04:45:46.602Z,17.57
2018-04-12T04:48:14.176Z,17.60
2018-04-12T04:50:41.651Z,18.87
2018-04-12T04:53:09.173Z,17.67
2018-04-12T04:55:36.696Z,17.40
2018-04-12T04:58:04.952Z,17.53
2018-04-12T05:00:32.447Z,18.27
2018-04-12T05:03:00.740Z,18.10
2018-04-12T05:05:28.233Z,17.43
2018-04-12T05:07:55.703Z,16.47
2018-04-12T05:10:23.194Z,17.13
2018-04-12T05:12:51.439Z,16.87
2018-04-12T05:15:18.931Z,17.97
2018-04-12T05:17:46.461Z,16.73
2018-04-12T05:20:13.952Z,18.80
2018-04-12T05:22:41.419Z,17.80
2018-04-12T05:25:08.911Z,15.97
2018-04-12T05:27:36.378Z,16.97
2018-04-12T05:30:03.868Z,17.67
2018-04-12T05:32:32.160Z,15.67
2018-04-12T05:34:59.658Z,16.73
2018-04-12T05:37:27.268Z,17.20
2018-04-12T05:39:54.787Z,17.00
2018-04-12T05:42:22.693Z,16.87
2018-04-12T05:44:50.242Z,17.70
2018-04-12T05:47:18.503Z,16.47
2018-04-12T05:49:46.001Z,17.53
2018-04-12T05:52:13.494Z,17.03
2018-04-12T05:54:41.103Z,18.03
2018-04-12T05:57:09.356Z,17.63
2018-04-12T05:59:37.644Z,17.27
2018-04-12T06:02:05.904Z,16.53
2018-04-12T06:04:33.397Z,16.70
2018-04-12T06:07:00.905Z,17.10
2018-04-12T06:09:28.504Z,17.67
2018-04-12T06:11:56.081Z,18.33
2018-04-12T06:14:23.571Z,18.63
2018-04-12T06:16:51.069Z,18.53
2018-04-12T06:19:19.307Z,19.03
2018-04-12T06:21:46.778Z,15.33
2018-04-12T06:24:14.295Z,19.03
2018-04-12T06:26:42.065Z,19.00
2018-04-12T06:29:09.809Z,18.73
2018-04-12T06:31:37.276Z,18.87
2018-04-12T06:34:04.795Z,18.30
2018-04-12T06:36:32.289Z,17.57
2018-04-12T06:38:59.813Z,18.17
2018-04-12T06:41:27.408Z,16.97
2018-04-12T06:43:54.901Z,17.20
2018-04-12T06:46:23.171Z,18.40
2018-04-12T06:48:50.773Z,17.10
2018-04-12T06:51:19.040Z,17.23
2018-04-12T06:53:46.556Z,17.87
2018-04-12T06:56:14.020Z,17.33
2018-04-12T06:58:41.517Z,17.90
2018-04-12T07:01:09.760Z,16.40
2018-04-12T07:03:37.253Z,18.27
2018-04-12T07:06:05.491Z,17.70
2018-04-12T07:08:32.973Z,16.70
2018-04-12T07:11:00.464Z,16.97
2018-04-12T07:13:27.951Z,17.27
2018-04-12T07:15:55.481Z,16.93
2018-04-12T07:18:23.061Z,17.20
2018-04-12T07:20:50.580Z,16.17
2018-04-12T07:23:18.816Z,16.23
2018-04-12T07:25:46.493Z,15.63
2018-04-12T07:28:13.974Z,15.13
2018-04-12T07:30:42.489Z,14.77
2018-04-12T07:33:09.967Z,15.93
2018-04-12T07:35:37.476Z,15.10
2018-04-12T07:38:05.773Z,14.93
2018-04-12T07:40:33.259Z,15.20
2018-04-12T07:43:00.728Z,14.80
2018-04-12T07:45:28.244Z,13.87
2018-04-12T07:47:55.800Z,13.83
2018-04-12T07:50:23.300Z,13.97
2018-04-12T07:52:50.812Z,12.67
2018-04-12T07:55:18.320Z,12.57
2018-04-12T07:57:46.151Z,28.20
2018-04-12T08:00:13.684Z,12.20
2018-04-12T08:02:41.180Z,12.83
2018-04-12T08:05:08.684Z,18.73
2018-04-12T08:07:36.186Z,16.00
2018-04-12T08:10:03.736Z,12.70
2018-04-12T08:12:31.317Z,12.73
2018-04-12T08:14:58.832Z,12.40
2018-04-12T08:17:27.092Z,12.40
2018-04-12T08:19:55.351Z,12.20
2018-04-12T08:22:22.859Z,12.57
2018-04-12T08:24:50.343Z,12.60
2018-04-12T08:27:17.845Z,12.33
2018-04-12T08:29:46.179Z,12.67
2018-04-12T08:32:13.717Z,12.47
2018-04-12T08:34:41.194Z,12.63
2018-04-12T08:37:08.704Z,11.87
2018-04-12T08:39:36.966Z,11.83
2018-04-12T08:42:05.251Z,11.60
2018-04-12T08:44:33.510Z,10.70
2018-04-12T08:47:01.049Z,10.80
2018-04-12T08:49:28.865Z,11.93
2018-04-12T08:51:56.411Z,11.63
2018-04-12T08:54:24.712Z,10.93
2018-04-12T08:56:52.237Z,11.70
2018-04-12T08:59:19.875Z,11.53
2018-04-12T09:01:47.704Z,13.07
2018-04-12T09:04:15.207Z,12.97
2018-04-12T09:06:44.222Z,12.17
2018-04-12T09:09:12.509Z,12.17
2018-04-12T09:11:39.988Z,31.60
2018-04-12T09:14:07.512Z,13.93
2018-04-12T09:16:34.981Z,13.23
2018-04-12T09:19:03.379Z,13.63
2018-04-12T09:21:31.005Z,13.30
2018-04-12T09:23:58.509Z,12.90
2018-04-12T09:26:26.040Z,13.43
2018-04-12T09:28:53.543Z,14.17
2018-04-12T09:31:21.856Z,14.10
2018-04-12T09:33:49.421Z,14.80
2018-04-12T09:36:17.731Z,15.97
2018-04-12T09:38:45.224Z,14.43
2018-04-12T09:41:12.726Z,15.43
2018-04-12T09:43:40.279Z,14.83
2018-04-12T09:46:08.518Z,14.60
2018-04-12T09:48:36.143Z,15.03
2018-04-12T09:51:03.619Z,15.50
2018-04-12T09:53:31.158Z,15.20
2018-04-12T09:55:58.709Z,16.40
2018-04-12T09:58:26.280Z,15.13
2018-04-12T10:00:55.562Z,14.77
2018-04-12T10:03:23.051Z,15.47
2018-04-12T10:05:56.153Z,15.27
2018-04-12T10:08:28.516Z,15.40
2018-04-12T10:10:56.013Z,17.50
2018-04-12T10:13:24.289Z,12.33
2018-04-12T10:15:51.778Z,13.50
2018-04-12T10:18:19.262Z,11.97
2018-04-12T10:20:46.803Z,10.90
2018-04-12T10:23:14.364Z,10.57
2018-04-12T10:25:41.890Z,10.10
2018-04-12T10:28:10.167Z,9.13
2018-04-12T10:30:38.433Z,8.07
2018-04-12T10:33:05.911Z,6.67
2018-04-12T10:35:33.386Z,7.73
2018-04-12T10:38:00.916Z,8.17
2018-04-12T10:40:29.145Z,7.87
2018-04-12T10:42:56.637Z,7.50
2018-04-12T10:45:24.143Z,8.33
2018-04-12T10:47:52.377Z,7.23
2018-04-12T10:50:20.607Z,7.40
2018-04-12T10:52:48.111Z,7.23
2018-04-12T10:55:16.352Z,6.10
2018-04-12T10:57:43.863Z,6.60
2018-04-12T11:00:11.418Z,7.30
2018-04-12T11:02:38.907Z,6.90
2018-04-12T11:05:06.430Z,7.70
2018-04-12T11:07:33.914Z,7.20
2018-04-12T11:10:01.393Z,7.47
2018-04-12T11:12:28.905Z,8.17
2018-04-12T11:14:56.452Z,8.10
2018-04-12T11:17:24.688Z,8.20
2018-04-12T11:19:52.184Z,8.53
2018-04-12T11:22:19.652Z,9.07
2018-04-12T11:24:47.916Z,8.33
2018-04-12T11:27:16.223Z,8.83
2018-04-12T11:29:44.488Z,9.13
2018-04-12T11:32:12.028Z,9.63
2018-04-12T11:34:40.388Z,10.13
2018-04-12T11:37:08.348Z,9.77
2018-04-12T11:39:35.952Z,9.67
2018-04-12T11:42:03.418Z,10.20
2018-04-12T11:44:31.011Z,10.40
2018-04-12T11:46:58.487Z,10.80
2018-04-12T11:49:25.979Z,10.50
2018-04-12T11:51:53.536Z,9.93
2018-04-12T11:54:21.887Z,10.53
2018-04-12T11:56:49.384Z,9.97
2018-04-12T11:59:16.858Z,11.00
2018-04-12T12:01:44.463Z,10.70
2018-04-12T12:04:11.912Z,11.70
2018-04-12T12:06:39.508Z,11.77
2018-04-12T12:09:07.005Z,11.67
2018-04-12T12:11:34.500Z,11.80
2018-04-12T12:14:02.759Z,10.83
2018-04-12T12:18:55.931Z,11.63
2018-04-12T12:21:23.420Z,11.90
2018-04-12T12:23:51.793Z,11.53
2018-04-12T12:26:19.213Z,11.43
2018-04-12T12:28:46.719Z,12.57
2018-04-12T12:31:14.971Z,11.93
2018-04-12T12:33:43.963Z,12.30
2018-04-12T12:36:11.448Z,11.60
2018-04-12T12:38:38.987Z,11.37
2018-04-12T12:41:07.302Z,10.50
2018-04-12T12:43:34.863Z,10.63
2018-04-12T12:46:02.339Z,10.57
2018-04-12T12:48:29.886Z,10.77
2018-04-12T12:50:57.360Z,9.90
2018-04-12T12:53:24.953Z,9.40
2018-04-12T12:55:52.474Z,10.10
2018-04-12T12:58:19.940Z,9.93
2018-04-12T13:00:47.448Z,11.00
2018-04-12T13:03:15.720Z,10.30
2018-04-12T13:05:43.959Z,10.37
2018-04-12T13:08:11.460Z,10.13
2018-04-12T13:10:39.704Z,10.87
2018-04-12T13:13:07.188Z,10.97
2018-04-12T13:15:36.461Z,10.03
2018-04-12T13:18:03.988Z,10.90
2018-04-12T13:20:31.523Z,11.00
2018-04-12T13:22:59.010Z,11.27
2018-04-12T13:25:26.506Z,10.60
2018-04-12T13:27:54.778Z,10.83
2018-04-12T13:30:22.353Z,11.13
2018-04-12T13:32:50.622Z,10.83
2018-04-12T13:35:18.212Z,10.83
2018-04-12T13:37:45.788Z,10.73
2018-04-12T13:40:13.286Z,11.73
2018-04-12T13:42:40.837Z,11.63
2018-04-12T13:45:09.116Z,11.53
2018-04-12T13:47:36.603Z,12.07
2018-04-12T13:50:04.997Z,11.53
2018-04-12T13:52:39.237Z,11.77
2018-04-12T13:55:06.778Z,11.00
2018-04-12T13:57:35.009Z,11.67
2018-04-12T14:00:02.511Z,12.47
2018-04-12T14:02:30.021Z,12.97
2018-04-12T14:04:57.517Z,12.53
2018-04-12T14:07:25.074Z,11.70
2018-04-12T14:09:52.575Z,12.20
2018-04-12T14:12:20.133Z,12.77
2018-04-12T14:14:47.650Z,12.70
2018-04-12T14:17:15.282Z,12.50
2018-04-12T14:19:42.769Z,11.37
2018-04-12T14:22:10.339Z,12.67
2018-04-12T14:24:37.849Z,12.63
2018-04-12T14:27:05.309Z,12.70
2018-04-12T14:29:33.136Z,11.30
2018-04-12T14:32:00.621Z,13.07
2018-04-12T14:34:28.103Z,13.47
2018-04-12T14:36:55.581Z,12.87
2018-04-12T14:39:23.247Z,12.67
2018-04-12T14:41:50.966Z,13.33
2018-04-12T14:44:19.260Z,12.47
2018-04-12T14:46:47.490Z,12.73
2018-04-12T14:49:14.992Z,13.00
2018-04-12T14:51:43.220Z,13.80
2018-04-12T14:54:10.718Z,12.67
2018-04-12T14:56:38.959Z,12.43
2018-04-12T14:59:06.452Z,11.87
2018-04-12T15:01:34.712Z,12.30
2018-04-12T15:04:02.472Z,12.40
2018-04-12T15:06:29.938Z,12.57
2018-04-12T15:08:57.437Z,12.70
2018-04-12T15:11:24.953Z,11.57
2018-04-12T15:13:52.434Z,11.77
2018-04-12T15:16:20.703Z,10.50
2018-04-12T15:18:49.026Z,10.30
2018-04-12T15:21:16.428Z,11.87
2018-04-12T15:23:43.921Z,12.27
2018-04-12T15:26:11.405Z,12.30
2018-04-12T15:28:38.912Z,11.80
2018-04-12T15:31:07.148Z,12.07
2018-04-12T15:33:34.617Z,11.33
2018-04-12T15:36:02.378Z,11.83
2018-04-12T15:38:29.967Z,12.23
2018-04-12T15:40:58.228Z,12.73
2018-04-12T15:43:25.717Z,12.43
2018-04-12T15:45:53.204Z,11.33
2018-04-12T15:48:20.752Z,11.90
2018-04-12T15:50:48.236Z,10.57
2018-04-12T15:53:15.728Z,10.97
2018-04-12T15:55:44.004Z,10.97
2018-04-12T15:58:12.283Z,10.70
2018-04-12T16:00:40.560Z,10.50
2018-04-12T16:03:08.794Z,10.43
2018-04-12T16:05:36.300Z,11.63
2018-04-12T16:08:05.262Z,11.33
2018-04-12T16:10:32.775Z,10.53
2018-04-12T16:13:00.259Z,10.53
2018-04-12T16:15:27.753Z,10.40
2018-04-12T16:17:56.016Z,10.10
2018-04-12T16:20:23.508Z,11.23
2018-04-12T16:22:50.995Z,10.60
2018-04-12T16:25:18.489Z,10.87
2018-04-12T16:27:46.064Z,11.63
2018-04-12T16:30:14.316Z,10.50
2018-04-12T16:32:41.811Z,10.77
2018-04-12T16:35:09.336Z,11.23
2018-04-12T16:37:37.740Z,11.03
2018-04-12T16:40:05.987Z,11.40
2018-04-12T16:42:33.469Z,11.90
2018-04-12T16:45:01.721Z,11.67
2018-04-12T16:47:29.204Z,11.50
2018-04-12T16:49:57.520Z,11.77
2018-04-12T16:52:25.025Z,11.90
2018-04-12T16:54:52.522Z,11.57
2018-04-12T16:57:20.001Z,11.87
2018-04-12T16:59:47.502Z,11.03
2018-04-12T17:02:15.747Z,11.03
2018-04-12T17:04:43.237Z,11.30
2018-04-12T17:07:11.472Z,10.87
2018-04-12T17:09:39.067Z,9.80
2018-04-12T17:12:06.569Z,10.27
2018-04-12T17:14:34.064Z,10.33
2018-04-12T17:17:01.536Z,10.30
2018-04-12T17:19:29.013Z,9.00
2018-04-12T17:21:57.245Z,10.70
2018-04-12T17:24:24.742Z,11.33
2018-04-12T17:26:52.974Z,11.83
2018-04-12T17:29:20.463Z,12.20
2018-04-12T17:31:47.948Z,12.47
2018-04-12T17:34:15.450Z,12.00
2018-04-12T17:36:42.974Z,12.77
2018-04-12T17:39:10.459Z,12.93
2018-04-12T17:41:37.951Z,11.20
2018-04-12T17:44:05.423Z,8.03
2018-04-12T17:46:33.684Z,6.03
2018-04-12T17:49:01.161Z,5.87
2018-04-12T17:51:29.456Z,5.53
2018-04-12T17:53:56.936Z,5.87
2018-04-12T17:56:24.438Z,5.40
2018-04-12T17:58:52.672Z,4.27
2018-04-12T18:01:20.167Z,4.20
2018-04-12T18:03:48.412Z,4.53
2018-04-12T18:06:15.940Z,6.33
2018-04-12T18:08:44.547Z,6.13
2018-04-12T18:11:12.062Z,5.00
2018-04-12T18:13:40.308Z,6.00
2018-04-12T18:16:07.797Z,6.20
2018-04-12T18:18:36.015Z,5.10
2018-04-12T18:21:03.508Z,4.73
2018-04-12T18:23:31.019Z,4.47
2018-04-12T18:25:58.537Z,4.27
2018-04-12T18:28:26.764Z,3.77
2018-04-12T18:30:54.248Z,3.90
2018-04-12T18:33:21.708Z,4.33
2018-04-12T18:35:49.194Z,6.83
2018-04-12T18:38:16.667Z,6.90
2018-04-12T18:40:44.147Z,9.03
2018-04-12T18:43:11.623Z,6.90
2018-04-12T18:45:39.183Z,6.27
2018-04-12T18:48:06.640Z,6.25
2018-04-12T18:50:34.125Z,5.20
2018-04-12T18:53:02.361Z,6.70
2018-04-12T18:55:30.006Z,6.47
2018-04-12T18:57:57.463Z,4.90
2018-04-12T19:00:24.972Z,4.10
2018-04-12T19:02:52.575Z,4.10
2018-04-12T19:05:20.091Z,4.10
2018-04-12T19:07:47.555Z,4.07
2018-04-12T19:10:15.055Z,3.83
2018-04-12T19:12:42.523Z,3.80
2018-04-12T19:15:10.062Z,3.80
2018-04-12T19:17:37.545Z,4.20
2018-04-12T19:20:05.011Z,4.10
2018-04-12T19:22:32.623Z,3.80
2018-04-12T19:25:00.140Z,4.20
2018-04-12T19:27:27.636Z,3.90
2018-04-12T19:29:55.213Z,4.00
2018-04-12T19:32:22.687Z,4.40
2018-04-12T19:34:50.220Z,4.60
2018-04-12T19:37:17.687Z,4.37
2018-04-12T19:39:45.205Z,5.03
2018-04-12T19:42:12.704Z,4.90
2018-04-12T19:44:40.198Z,6.00
2018-04-12T19:47:07.673Z,6.40
2018-04-12T19:49:35.132Z,5.43
2018-04-12T19:52:02.738Z,4.53
2018-04-12T19:54:30.260Z,4.27
2018-04-12T19:56:58.573Z,5.00
2018-04-12T19:59:26.201Z,6.40
2018-04-12T20:01:54.484Z,8.27
2018-04-12T20:04:22.757Z,9.30
2018-04-12T20:06:51.028Z,7.70
2018-04-12T20:09:19.364Z,6.07
2018-04-12T20:11:46.851Z,5.83
2018-04-12T20:14:14.325Z,7.97
2018-04-12T20:16:42.606Z,9.53
2018-04-12T20:19:10.877Z,7.17
2018-04-12T20:21:39.180Z,6.67
2018-04-12T20:24:06.657Z,5.47
2018-04-12T20:26:34.152Z,7.10
2018-04-12T20:29:01.861Z,9.37
2018-04-12T20:31:29.348Z,7.33
2018-04-12T20:33:56.920Z,6.00
2018-04-12T20:36:26.226Z,6.17
2018-04-12T20:38:54.492Z,6.20
2018-04-12T20:41:23.484Z,6.27
2018-04-12T20:43:50.963Z,5.70
2018-04-12T20:46:19.230Z,5.47
2018-04-12T20:48:46.704Z,5.80
2018-04-12T20:51:14.970Z,6.03
2018-04-12T20:53:43.209Z,5.73
2018-04-12T20:56:10.740Z,5.57
2018-04-12T20:58:38.318Z,4.90
2018-04-12T21:01:05.858Z,5.13
2018-04-12T21:03:33.318Z,4.60
2018-04-12T21:06:00.998Z,5.40
2018-04-12T21:08:28.536Z,5.80
2018-04-12T21:10:56.064Z,5.70
2018-04-12T21:13:24.519Z,5.67
2018-04-12T21:15:53.364Z,5.63
2018-04-12T21:18:20.835Z,5.50
2018-04-12T21:20:48.319Z,5.50
2018-04-12T21:23:15.835Z,5.73
2018-04-12T21:25:43.314Z,5.40
2018-04-12T21:28:10.823Z,5.57
2018-04-12T21:30:39.126Z,5.40
2018-04-12T21:33:06.605Z,5.13
2018-04-12T21:35:34.127Z,5.07
2018-04-12T21:38:02.353Z,4.90
2018-04-12T21:40:29.852Z,5.33
2018-04-12T21:42:58.082Z,5.20
2018-04-12T21:45:25.567Z,5.73
2018-04-12T21:47:54.565Z,5.67
2018-04-12T21:50:22.820Z,5.20
2018-04-12T21:52:50.277Z,5.03
2018-04-12T21:55:17.758Z,5.57
2018-04-12T21:57:46.074Z,5.43
2018-04-12T22:00:13.553Z,5.83
2018-04-12T22:02:41.050Z,5.87
2018-04-12T22:05:09.442Z,5.80
2018-04-12T22:07:37.696Z,5.50
2018-04-12T22:10:05.155Z,5.23
2018-04-12T22:12:33.431Z,5.20
2018-04-12T22:15:01.754Z,5.60
2018-04-12T22:17:29.252Z,4.97
2018-04-12T22:19:56.729Z,5.70
2018-04-12T22:22:24.986Z,5.30
2018-04-12T22:24:52.455Z,4.83
2018-04-12T22:27:19.963Z,5.00
2018-04-12T22:29:47.431Z,4.87
2018-04-12T22:32:14.924Z,4.47
2018-04-12T22:34:42.488Z,4.40
2018-04-12T22:37:10.756Z,5.07
2018-04-12T22:39:38.283Z,4.90
2018-04-12T22:42:05.759Z,4.93
2018-04-12T22:44:33.251Z,4.90
2018-04-12T22:47:01.504Z,4.70
2018-04-12T22:49:28.967Z,4.57
2018-04-12T22:51:57.963Z,5.00
2018-04-12T22:54:25.441Z,4.30
2018-04-12T22:56:53.692Z,4.60
2018-04-12T22:59:21.189Z,4.30
2018-04-12T23:01:48.729Z,4.37
2018-04-12T23:04:16.972Z,4.60
2018-04-12T23:06:44.457Z,4.00
2018-04-12T23:09:12.703Z,4.10
2018-04-12T23:11:40.192Z,4.50
2018-04-12T23:14:08.448Z,4.73
2018-04-12T23:16:35.926Z,4.80
2018-04-12T23:19:04.191Z,4.60
2018-04-12T23:21:31.685Z,5.10
2018-04-12T23:23:59.208Z,5.37
2018-04-12T23:26:26.748Z,5.70
2018-04-12T23:28:54.233Z,5.23
2018-04-12T23:31:21.760Z,5.57
2018-04-12T23:33:49.287Z,5.20
2018-04-12T23:36:17.561Z,5.70
2018-04-12T23:38:45.787Z,5.40
2018-04-12T23:41:13.304Z,5.80
2018-04-12T23:43:40.791Z,5.70
2018-04-12T23:46:08.273Z,6.03
2018-04-12T23:48:35.759Z,6.20
2018-04-12T23:51:03.248Z,6.60
2018-04-12T23:53:30.821Z,6.63
2018-04-12T23:55:58.348Z,6.30
2018-04-12T23:58:26.593Z,6.60
